Relevés horaires Chievres (Belgique)


Relevés horaires à Chievres - Mercredi 25 Oct. 2017
Heure UTC1 Température [°C] Vent [km/h] Hum. [%] Pres.4 [hPa] Visi. [Km] Nébu. [octa] Préc.5 [mm] Cond.
2m. Res. Ros. Dir.2 Vit. Moy. Raf.3
23:00 13.8 13.8 13.7 S 3.7 -- 5.6 99 1025.2(0.0/3h) 11 -- -- --
22:00 13.8 13.8 13.7 NNO 1.9 -- 3.7 99 1025.5(0.6/3h) 6 -- -- NA
21:00 14.0 14.0 13.8 NNO 1.9 -- 9.3 99 1025.5(0.9/3h) 4.3 -- -- Il y a de la pluie faible et continue à la station au moment de l'observation
20:00 14.5 14.5 13.5 SO 5.6 -- 7.4 94 1025.2(0.8/3h) 20 -- -- --
19:00 14.2 14.2 13.7 S 5.6 -- 9.3 97 1024.7(1.0/3h) 10 -- -- --
18:00 14.5 14.5 13.6 SSO 5.6 -- 11.1 94 1024.5(0.9/3h) 15 -- -- --
17:00 14.8 14.7 13.2 SO 7.4 -- 9.3 90 1024.2(1.1/3h) 19 -- -- --
15:00 15.5 15.5 13.1 SO 7.4 -- 11.1 86 1023.6(0.7/3h) 20 -- -- --
14:00 15.5 15.5 13.2 SO 5.6 -- 9.3 86 1023.2(0.3/3h) 20 -- -- --
13:00 15.6 15.6 13.1 OSO 5.6 -- 11.1 85 1023.2(0.6/3h) 19 -- -- --
12:00 16.0 16.0 12.7 OSO 5.6 -- 18.5 81 1022.7(0.5/3h) 20 -- -- --
11:00 16.1 16 12.7 OSO 9.3 -- 18.5 80 1022.7(1.1/3h) 20 -- -- --
10:00 15.9 15.8 13.2 OSO 9.3 -- 16.7 84 1022.5(1.2/3h) 18 -- -- --
09:00 15.1 14.8 13.4 SO 9.3 -- 18.5 90 1022.2(1.7/3h) 18 -- -- --
08:00 14.6 14.2 13.3 SO 9.3 -- 14.8 92 1021.7(1.2/3h) 14 -- -- --
07:00 14.5 14.1 13.3 SO 9.3 -- 18.5 93 1021.2(0.7/3h) 16 -- -- --
06:00 14.3 13.6 13.5 SO 11.1 -- 18.5 95 1020.5(0.0/3h) 13 -- 0.1/12h
--
05:00 14.1 13.6 13.5 SSO 9.3 -- 14.8 96 1020.5(-0.2/3h) 13 -- -- --
04:00 14.4 14 13.8 SSO 9.3 -- 18.5 96 1020.6(-0.2/3h) 11 -- -- --
03:00 15.1 14.6 14.3 SO 11.1 -- 16.7 95 1020.6(-0.5/3h) 13 -- -- --
02:00 15.1 14.8 14.4 SSO 9.3 -- 14.8 96 1020.7(-0.9/3h) 13 -- -- --
01:00 15.3 15.1 14.7 SSO 9.3 -- 14.8 96 1020.7(-1.0/3h) 14 -- -- --
00:00 15.8 15.4 15.1 SSO 11.1 -- 14.8 96 1021.1(-0.8/3h) 11 -- 0.1/6h
NA

1 Coordinated Universal Time. Actuellement il est 10:00 locale et 08:00 UTC.

2 Le vent souffle depuis la direction indiquée vers la direction oposée.

3 Les rafales max. sont disponible 40 min après l'heure du relevé.

4 Pour les stations d'altitude (plus de 600m) le géopotentiel du niveau le plus proche de la pression obligatoire est indiqué.

5 Les stations disposant d'un diffuseur peuvent indiquer "trace". Cela signifie que des précipitations ont touchés le sol mais que la quantité est inférieure à 0.1 mm.

Récapitulatif de la journée
Température [°C] Vent [km/h] Ensoleillement4 [h] Precipitations totale5 [mm] Pression [Hpa]
Min1 Max.2 Moy.3 Max. Min Max.
14.1 16.6 0 18.5 0 h 0 min 0 1020.5 1025.5

1 Température minimale relevée entre 18:00 UTC la veille et 18:00 UTC le jour donné.

2 Température maximale relevée entre 06:00 UTC le jour donné et 06:00 UTC le lendemain.

3 Vent moyen de la journée basé sur les relevés horaires.

4 Ensoleillement en heures relevé entre 06:00 UTC la veille et 06:00 UTC le jour donné.

5 Précipitations totales tombées entre 06:00 UTC la jour donné et 06:00 UTC le lendemain.

Graphiques horaires